Arethusa — 9HJR9 — position and weather

sailwx.info

Track history (hours):
 
Tides and Currents Weather Stations Pressure Air Temp Water Temp Dewpoint Dewpoint Depression Visibility Wind Speed Wind Dir Waves Ship Positions

Arethusa

Last reported at 2016-Sep-25 12:33 UTC. Time now 2016-Sep-25 14:00 UTC.
Position N 44°02' E 010°02'.

Length 60 m; draft 3 m.

Type: Passenger vessel. MMSI: 249069000.

Date/timePositionNaut miles runAvg speedWind from/ knotsBaromVisibWave heightAir tempDewpointWater temp
2016-Sep-25 12:33N 44°02' E 010°02'0 0.0
2016-Sep-25 11:30N 44°02' E 010°02'0 0.0
2016-Sep-25 10:33N 44°02' E 010°02'0 0.0
2016-Sep-25 09:33N 44°02' E 010°02'0 0.0
2016-Sep-25 07:33N 44°02' E 010°02'0 0.0
2016-Sep-25 04:33N 44°02' E 010°02'0 0.0
2016-Sep-25 00:33N 44°02' E 010°02'0 0.0
2016-Sep-24 22:33N 44°02' E 010°02'0 0.0
2016-Sep-24 21:34N 44°02' E 010°02'0 0.0
2016-Sep-24 19:33N 44°02' E 010°02'0 0.0
2016-Sep-24 18:33N 44°02' E 010°02'0 0.0
2016-Sep-24 17:33N 44°02' E 010°02'0 0.0
2016-Sep-24 16:34N 44°02' E 010°02'0 0.0
2016-Sep-24 14:34N 44°02' E 010°02'0 0.0
2016-Sep-24 12:33N 44°02' E 010°02'0 0.0
2016-Sep-24 10:33N 44°02' E 010°02'0 0.0
2016-Sep-24 09:34N 44°02' E 010°02'19 3.2
2016-Sep-24 03:34N 43°44' E 009°53'10 9.7
2016-Sep-24 02:33N 43°35' E 009°49'10 9.9
2016-Sep-24 01:33N 43°26' E 009°45'  
2016-Sep-21 16:33N 43°20' E 010°15'13 1.9
2016-Sep-21 09:33N 43°33' E 010°18'0 0.0
2016-Sep-21 08:33N 43°33' E 010°18'0 0.0
2016-Sep-21 05:33N 43°33' E 010°18'0 0.0
2016-Sep-21 03:33N 43°33' E 010°18'0 0.0
2016-Sep-21 02:33N 43°33' E 010°18'32 3.5
2016-Sep-20 17:28N 43°01' E 010°19'12 0.8
2016-Sep-20 02:32N 43°13' E 010°12'27 9.2
2016-Sep-19 23:33N 43°39' E 010°04'23 5.7
2016-Sep-19 19:33N 44°02' E 010°02'0 0.0
2016-Sep-19 18:33N 44°02' E 010°02'0 0.0
2016-Sep-19 16:24N 44°02' E 010°02'0 0.0
2016-Sep-19 14:30N 44°02' E 010°02'0 0.0
2016-Sep-19 13:33N 44°02' E 010°02'0 0.0
2016-Sep-19 12:33N 44°02' E 010°02'0 0.0
2016-Sep-19 11:33N 44°02' E 010°02'0 0.0
2016-Sep-19 09:27N 44°02' E 010°02'0 0.0
2016-Sep-19 07:33N 44°02' E 010°02'0 0.0
2016-Sep-19 06:33N 44°02' E 010°02'0 0.0
2016-Sep-19 03:33N 44°02' E 010°02'0 0.0
2016-Sep-19 02:33N 44°02' E 010°02'0 0.0
2016-Sep-19 00:33N 44°02' E 010°02'0 0.0
2016-Sep-18 19:33N 44°02' E 010°02'0 0.0
2016-Sep-18 15:33N 44°02' E 010°02'0 0.0
2016-Sep-18 14:33N 44°02' E 010°02'0 0.0
2016-Sep-18 10:33N 44°02' E 010°02'0 0.0
2016-Sep-18 09:33N 44°02' E 010°02'0 0.0
2016-Sep-18 02:33N 44°02' E 010°02'0 0.0
2016-Sep-18 01:33N 44°02' E 010°02'0 0.0
2016-Sep-18 00:33N 44°02' E 010°02'0 0.0
2016-Sep-17 22:27N 44°02' E 010°02'0 0.0
2016-Sep-17 21:33N 44°02' E 010°02'0 0.0
2016-Sep-17 20:30N 44°02' E 010°02'0 0.0
2016-Sep-17 19:12N 44°02' E 010°02'0 0.0
2016-Sep-17 13:33N 44°02' E 010°02'0 0.0
2016-Sep-17 12:33N 44°02' E 010°02'0 0.0
2016-Sep-17 10:33N 44°02' E 010°02'0 0.0
2016-Sep-17 09:33N 44°02' E 010°02'0 0.0
2016-Sep-17 08:33N 44°02' E 010°02'0 0.0
2016-Sep-17 07:33N 44°02' E 010°02'0 0.0
2016-Sep-17 05:33N 44°02' E 010°02'0 0.0
2016-Sep-17 04:33N 44°02' E 010°02'0 0.0
2016-Sep-17 00:33N 44°02' E 010°02'7 1.0
2016-Sep-16 17:33N 44°00' E 009°53'2010.1
2016-Sep-16 15:33N 44°10' E 009°28'25 2.1
2016-Sep-16 03:33N 44°08' E 008°54'1110.5
2016-Sep-16 02:33N 44°03' E 008°41'6110.2
2016-Sep-15 20:32N 43°40' E 007°22'  
Track history (hours):
 
Tides and Currents Weather Stations Pressure Air Temp Water Temp Dewpoint Dewpoint Depression Visibility Wind Speed Wind Dir Waves Ship Positions

Arethusa

Last reported at 2016-Sep-25 12:33 UTC. Time now 2016-Sep-25 14:00 UTC.
Position N 44°02' E 010°02'.

Length 60 m; draft 3 m.

Type: Passenger vessel. MMSI: 249069000.

Date/timePositionNaut miles runAvg speedWind from/ knotsBaromVisibWave heightAir tempDewpointWater temp
2016-Sep-25 12:33N 44°02' E 010°02'0 0.0
2016-Sep-25 11:30N 44°02' E 010°02'0 0.0
2016-Sep-25 10:33N 44°02' E 010°02'0 0.0
2016-Sep-25 09:33N 44°02' E 010°02'0 0.0
2016-Sep-25 07:33N 44°02' E 010°02'0 0.0
2016-Sep-25 04:33N 44°02' E 010°02'0 0.0
2016-Sep-25 00:33N 44°02' E 010°02'0 0.0
2016-Sep-24 22:33N 44°02' E 010°02'0 0.0
2016-Sep-24 21:34N 44°02' E 010°02'0 0.0
2016-Sep-24 19:33N 44°02' E 010°02'0 0.0
2016-Sep-24 18:33N 44°02' E 010°02'0 0.0
2016-Sep-24 17:33N 44°02' E 010°02'0 0.0
2016-Sep-24 16:34N 44°02' E 010°02'0 0.0
2016-Sep-24 14:34N 44°02' E 010°02'0 0.0
2016-Sep-24 12:33N 44°02' E 010°02'0 0.0
2016-Sep-24 10:33N 44°02' E 010°02'0 0.0
2016-Sep-24 09:34N 44°02' E 010°02'19 3.2
2016-Sep-24 03:34N 43°44' E 009°53'10 9.7
2016-Sep-24 02:33N 43°35' E 009°49'10 9.9
2016-Sep-24 01:33N 43°26' E 009°45'  
2016-Sep-21 16:33N 43°20' E 010°15'13 1.9
2016-Sep-21 09:33N 43°33' E 010°18'0 0.0
2016-Sep-21 08:33N 43°33' E 010°18'0 0.0
2016-Sep-21 05:33N 43°33' E 010°18'0 0.0
2016-Sep-21 03:33N 43°33' E 010°18'0 0.0
2016-Sep-21 02:33N 43°33' E 010°18'32 3.5
2016-Sep-20 17:28N 43°01' E 010°19'12 0.8
2016-Sep-20 02:32N 43°13' E 010°12'27 9.2
2016-Sep-19 23:33N 43°39' E 010°04'23 5.7
2016-Sep-19 19:33N 44°02' E 010°02'0 0.0
2016-Sep-19 18:33N 44°02' E 010°02'0 0.0
2016-Sep-19 16:24N 44°02' E 010°02'0 0.0
2016-Sep-19 14:30N 44°02' E 010°02'0 0.0
2016-Sep-19 13:33N 44°02' E 010°02'0 0.0
2016-Sep-19 12:33N 44°02' E 010°02'0 0.0
2016-Sep-19 11:33N 44°02' E 010°02'0 0.0
2016-Sep-19 09:27N 44°02' E 010°02'0 0.0
2016-Sep-19 07:33N 44°02' E 010°02'0 0.0
2016-Sep-19 06:33N 44°02' E 010°02'0 0.0
2016-Sep-19 03:33N 44°02' E 010°02'0 0.0
2016-Sep-19 02:33N 44°02' E 010°02'0 0.0
2016-Sep-19 00:33N 44°02' E 010°02'0 0.0
2016-Sep-18 19:33N 44°02' E 010°02'0 0.0
2016-Sep-18 15:33N 44°02' E 010°02'0 0.0
2016-Sep-18 14:33N 44°02' E 010°02'0 0.0
2016-Sep-18 10:33N 44°02' E 010°02'0 0.0
2016-Sep-18 09:33N 44°02' E 010°02'0 0.0
2016-Sep-18 02:33N 44°02' E 010°02'0 0.0
2016-Sep-18 01:33N 44°02' E 010°02'0 0.0
2016-Sep-18 00:33N 44°02' E 010°02'0 0.0
2016-Sep-17 22:27N 44°02' E 010°02'0 0.0
2016-Sep-17 21:33N 44°02' E 010°02'0 0.0
2016-Sep-17 20:30N 44°02' E 010°02'0 0.0
2016-Sep-17 19:12N 44°02' E 010°02'0 0.0
2016-Sep-17 13:33N 44°02' E 010°02'0 0.0
2016-Sep-17 12:33N 44°02' E 010°02'0 0.0
2016-Sep-17 10:33N 44°02' E 010°02'0 0.0
2016-Sep-17 09:33N 44°02' E 010°02'0 0.0
2016-Sep-17 08:33N 44°02' E 010°02'0 0.0
2016-Sep-17 07:33N 44°02' E 010°02'0 0.0
2016-Sep-17 05:33N 44°02' E 010°02'0 0.0
2016-Sep-17 04:33N 44°02' E 010°02'0 0.0
2016-Sep-17 00:33N 44°02' E 010°02'7 1.0
2016-Sep-16 17:33N 44°00' E 009°53'2010.1
2016-Sep-16 15:33N 44°10' E 009°28'25 2.1
2016-Sep-16 03:33N 44°08' E 008°54'1110.5
2016-Sep-16 02:33N 44°03' E 008°41'6110.2
2016-Sep-15 20:32N 43°40' E 007°22'  

Dump ship's entire track history